Time;durP1;ratioP1;P1;durP2;ratioP2;P2;SDS_P1;SDS_P2;PMS_P1;PMS_P2;Temp;Humidity;BMP_temperature;BMP_pressure;BME280_temperature;BME280_humidity;BME280_pressure;Samples;Min_cycle;Max_cycle;Signal;HPM_P1;HPM_P2
2021/05/29 00:00:55;;;;;;;3.60;2.47;;;16.50;99.90;;;;;;6153642;23;20249;-88
2021/05/29 07:30:49;;;;;;;3.97;3.20;;;19.60;99.90;;;;;;6099724;22;20045;-87
2021/05/29 07:33:17;;;;;;;3.50;3.20;;;19.60;99.90;;;;;;6150740;23;20337;-85
2021/05/29 07:35:46;;;;;;;3.67;3.17;;;19.70;99.90;;;;;;6151468;23;20026;-86
2021/05/29 07:38:13;;;;;;;6.55;3.47;;;19.70;99.90;;;;;;6150563;23;20029;-85
2021/05/29 07:40:40;;;;;;;5.88;3.30;;;19.80;99.90;;;;;;6151821;23;20087;-86
2021/05/29 07:43:07;;;;;;;5.53;3.35;;;19.80;99.90;;;;;;6149925;23;20017;-86
2021/05/29 07:45:35;;;;;;;4.18;3.30;;;20.00;99.90;;;;;;6149070;23;20025;-85
2021/05/29 07:48:05;;;;;;;4.07;2.88;;;20.20;99.90;;;;;;6150046;23;20044;-85
2021/05/29 07:50:32;;;;;;;4.07;3.17;;;20.40;99.90;;;;;;6149184;23;20487;-85
2021/05/29 07:53:01;;;;;;;5.05;3.45;;;20.50;99.90;;;;;;6149923;23;20345;-86
2021/05/29 07:55:29;;;;;;;3.72;2.70;;;20.60;99.90;;;;;;6149449;23;20087;-86
2021/05/29 07:57:56;;;;;;;3.15;2.50;;;20.60;99.90;;;;;;6152515;23;20064;-85
2021/05/29 08:00:26;;;;;;;3.55;2.47;;;20.80;99.90;;;;;;6149769;23;20036;-85
2021/05/29 08:02:52;;;;;;;2.72;2.50;;;20.90;99.90;;;;;;6150392;23;20342;-85
2021/05/29 08:05:23;;;;;;;2.53;2.30;;;20.90;99.90;;;;;;6149524;23;20076;-87
2021/05/29 08:07:52;;;;;;;4.50;2.72;;;20.90;99.90;;;;;;6150116;23;20017;-85
2021/05/29 08:10:19;;;;;;;5.00;2.25;;;20.90;99.90;;;;;;6150235;23;20076;-86
2021/05/29 08:12:46;;;;;;;3.58;2.38;;;20.90;99.90;;;;;;6150143;23;20021;-85
2021/05/29 08:15:13;;;;;;;2.75;2.15;;;21.00;99.90;;;;;;6147508;23;20025;-85
2021/05/29 08:17:40;;;;;;;2.65;1.90;;;21.00;99.90;;;;;;6149595;23;20092;-85
2021/05/29 08:20:08;;;;;;;4.30;2.17;;;21.00;99.90;;;;;;6149629;23;20021;-86
2021/05/29 08:22:35;;;;;;;3.95;2.15;;;21.00;99.90;;;;;;6148414;23;20104;-86
2021/05/29 08:25:02;;;;;;;5.00;2.05;;;21.10;99.90;;;;;;6150206;23;20017;-85
2021/05/29 08:27:28;;;;;;;2.95;2.10;;;21.00;99.90;;;;;;6151077;23;20022;-86
2021/05/29 08:29:57;;;;;;;3.03;1.92;;;21.00;99.90;;;;;;6151702;23;20032;-87
2021/05/29 08:32:24;;;;;;;;;;;21.00;99.90;;;;;;6150402;23;20477;-85
2021/05/29 08:34:52;;;;;;;4.55;2.17;;;21.10;99.90;;;;;;6152266;23;19917;-88
2021/05/29 08:37:18;;;;;;;2.47;1.92;;;21.10;99.90;;;;;;6147067;23;20083;-87
2021/05/29 08:39:45;;;;;;;3.53;1.80;;;21.20;99.90;;;;;;6150673;23;20399;-87
2021/05/29 08:42:13;;;;;;;2.85;1.90;;;21.20;99.90;;;;;;6149230;23;20432;-88
2021/05/29 08:44:40;;;;;;;3.38;1.77;;;21.20;99.90;;;;;;6148422;23;20373;-88
2021/05/29 08:47:07;;;;;;;1.80;1.67;;;21.30;99.90;;;;;;6149097;23;20045;-88
2021/05/29 08:49:35;;;;;;;4.10;1.88;;;21.30;99.90;;;;;;6151048;23;20022;-89
2021/05/29 08:52:03;;;;;;;2.80;1.90;;;21.40;99.90;;;;;;6150238;23;20017;-88
2021/05/29 08:54:31;;;;;;;43.97;10.82;;;21.50;99.90;;;;;;6149477;23;20013;-87
2021/05/29 08:56:57;;;;;;;4.15;2.47;;;21.40;99.90;;;;;;6150409;23;20025;-88
2021/05/29 08:59:24;;;;;;;2.63;1.70;;;21.40;99.90;;;;;;6152372;23;20056;-87
2021/05/29 09:01:55;;;;;;;4.15;1.95;;;21.40;99.90;;;;;;6152931;23;20014;-88
2021/05/29 09:04:22;;;;;;;3.30;1.90;;;21.40;99.90;;;;;;6152486;23;20079;-87
2021/05/29 09:06:49;;;;;;;2.90;1.73;;;21.30;99.90;;;;;;6153254;23;20017;-87
2021/05/29 09:09:16;;;;;;;2.10;1.77;;;21.30;99.90;;;;;;6152308;23;20088;-87
2021/05/29 09:11:49;;;;;;;3.47;1.95;;;21.40;99.90;;;;;;6152671;23;20017;-88
2021/05/29 09:14:22;;;;;;;3.35;1.90;;;21.40;99.90;;;;;;6152313;23;20110;-87
2021/05/29 09:17:23;;;;;;;3.55;2.10;;;21.50;99.90;;;;;;6152874;23;20393;-87
2021/05/29 09:20:07;;;;;;;3.72;2.00;;;21.70;99.90;;;;;;6136539;23;20076;-87
2021/05/29 09:22:54;;;;;;;3.40;2.40;;;21.80;99.90;;;;;;6151910;23;20475;-87
2021/05/29 09:25:25;;;;;;;3.80;1.95;;;22.00;99.90;;;;;;6150937;23;20030;-87
2021/05/29 09:28:01;;;;;;;4.22;2.35;;;22.00;99.90;;;;;;6152484;23;20017;-87
2021/05/29 09:30:35;;;;;;;5.50;2.55;;;22.10;99.90;;;;;;6151581;23;20381;-88
2021/05/29 09:33:35;;;;;;;3.05;1.98;;;22.20;99.90;;;;;;6152914;23;20014;-88
2021/05/29 09:36:06;;;;;;;4.18;2.40;;;22.40;99.90;;;;;;6152383;23;20013;-87
2021/05/29 09:38:57;;;;;;;4.47;2.30;;;22.50;99.90;;;;;;6152302;23;20025;-87
2021/05/29 09:41:30;;;;;;;5.20;2.10;;;22.60;99.90;;;;;;6153357;23;20018;-87
2021/05/29 09:43:59;;;;;;;7.93;2.80;;;22.50;99.90;;;;;;6156278;23;20094;-87
2021/05/29 09:46:27;;;;;;;8.75;3.72;;;22.60;99.90;;;;;;6152667;23;20021;-87
2021/05/29 09:49:00;;;;;;;4.57;2.22;;;22.80;99.90;;;;;;6156485;23;20014;-86
2021/05/29 09:51:31;;;;;;;3.33;2.10;;;23.10;99.90;;;;;;6154119;23;20389;-87
2021/05/29 09:54:06;;;;;;;3.35;2.10;;;23.20;99.90;;;;;;6154247;23;20017;-87
2021/05/29 09:56:41;;;;;;;3.67;1.73;;;23.50;99.90;;;;;;6155242;23;20017;-87
2021/05/29 09:59:20;;;;;;;3.75;2.10;;;23.60;99.90;;;;;;6154281;23;20469;-87
2021/05/29 10:01:53;;;;;;;4.07;2.25;;;23.70;99.90;;;;;;6154385;23;20009;-88
2021/05/29 10:04:27;;;;;;;2.47;1.70;;;23.80;99.90;;;;;;6154383;23;20097;-88
2021/05/29 10:06:59;;;;;;;2.78;2.10;;;23.80;99.90;;;;;;6156419;23;20024;-87
2021/05/29 10:09:27;;;;;;;4.00;2.42;;;23.80;99.90;;;;;;6153986;23;20021;-88
2021/05/29 10:11:54;;;;;;;2.80;2.42;;;23.80;99.90;;;;;;6154538;23;20025;-88
2021/05/29 10:14:22;;;;;;;3.70;1.70;;;23.70;99.90;;;;;;6152717;23;20017;-88
2021/05/29 10:16:49;;;;;;;2.00;1.58;;;23.70;99.90;;;;;;6152189;23;20245;-88
2021/05/29 10:19:21;;;;;;;5.27;1.60;;;23.90;99.90;;;;;;6151277;23;20033;-87
2021/05/29 10:21:52;;;;;;;3.13;1.27;;;24.00;99.90;;;;;;6153322;23;20026;-86
2021/05/29 10:24:21;;;;;;;1.77;1.40;;;24.30;99.90;;;;;;6150926;23;20080;-91
2021/05/29 10:26:50;;;;;;;2.33;1.45;;;24.50;99.90;;;;;;6152130;23;20013;-91
2021/05/29 10:29:24;;;;;;;5.10;1.80;;;24.70;99.90;;;;;;6152451;23;20080;-88
2021/05/29 10:32:07;;;;;;;3.17;1.63;;;24.70;99.20;;;;;;6152830;23;20021;-89
2021/05/29 10:35:09;;;;;;;2.63;1.45;;;24.80;99.10;;;;;;6152854;23;20024;-89
2021/05/29 10:37:43;;;;;;;4.43;2.25;;;24.90;98.10;;;;;;6149682;23;20046;-88
2021/05/29 10:40:21;;;;;;;3.13;1.50;;;25.00;97.90;;;;;;6153212;23;20048;-87
2021/05/29 10:43:07;;;;;;;3.22;1.60;;;24.80;97.50;;;;;;6153751;23;20017;-87
2021/05/29 10:46:02;;;;;;;2.42;1.40;;;24.80;96.90;;;;;;6153516;23;20508;-88
2021/05/29 10:48:29;;;;;;;3.03;1.40;;;24.70;97.40;;;;;;6153199;23;20013;-86
2021/05/29 10:53:46;;;;;;;2.35;1.20;;;24.60;96.80;;;;;;6154351;23;20014;-87
2021/05/29 10:56:16;;;;;;;3.10;1.63;;;24.70;97.30;;;;;;6153840;23;20021;-88
2021/05/29 10:59:15;;;;;;;4.38;1.35;;;24.70;97.00;;;;;;6151598;23;20411;-88
2021/05/29 11:01:42;;;;;;;2.38;1.73;;;24.70;96.90;;;;;;6150006;23;20029;-88
2021/05/29 11:06:42;;;;;;;3.40;1.60;;;24.70;97.00;;;;;;6152136;23;20052;-87
2021/05/29 11:09:11;;;;;;;3.22;1.33;;;24.70;96.90;;;;;;6150118;23;20028;-87
2021/05/29 11:14:07;;;;;;;2.30;1.60;;;24.70;96.60;;;;;;6151905;23;20069;-87
2021/05/29 11:16:47;;;;;;;4.40;1.75;;;24.60;96.20;;;;;;6150358;23;20021;-85
2021/05/29 11:19:14;;;;;;;5.80;1.67;;;24.60;96.10;;;;;;6150178;23;20380;-87
2021/05/29 11:22:13;;;;;;;2.55;1.25;;;24.60;96.70;;;;;;6150201;23;20017;-87
2021/05/29 11:24:50;;;;;;;1.55;1.42;;;24.60;97.50;;;;;;6150643;23;20531;-86
2021/05/29 11:27:20;;;;;;;2.55;1.60;;;24.30;97.20;;;;;;6151555;23;20488;-85
2021/05/29 11:29:54;;;;;;;4.43;1.80;;;24.10;97.70;;;;;;6151109;23;20026;-85
2021/05/29 11:33:01;;;;;;;5.78;1.83;;;23.90;97.60;;;;;;6151300;23;20372;-87
2021/05/29 11:35:35;;;;;;;2.47;1.98;;;23.80;98.20;;;;;;6150161;23;20022;-87
2021/05/29 11:38:21;;;;;;;4.45;2.00;;;23.70;98.70;;;;;;6150884;23;20017;-87
2021/05/29 11:40:53;;;;;;;2.33;1.55;;;23.60;99.30;;;;;;6141998;23;20072;-87
2021/05/29 11:43:33;;;;;;;1.88;1.50;;;23.70;99.10;;;;;;6150123;23;20060;-87
2021/05/29 11:46:02;;;;;;;3.35;2.00;;;23.70;99.10;;;;;;6150697;23;20029;-86
2021/05/29 11:48:37;;;;;;;2.28;2.08;;;23.50;99.10;;;;;;6149960;23;20456;-86
2021/05/29 11:53:41;;;;;;;1.95;1.80;;;23.40;99.30;;;;;;6151879;23;20022;-86
2021/05/29 11:56:08;;;;;;;4.38;2.63;;;23.30;99.50;;;;;;6149983;23;20091;-87
2021/05/29 11:58:45;;;;;;;4.93;2.30;;;23.20;99.90;;;;;;6152418;23;20397;-86
2021/05/29 12:01:14;;;;;;;2.88;2.28;;;23.00;99.90;;;;;;6152412;23;20026;-87
2021/05/29 12:03:48;;;;;;;2.45;2.15;;;23.00;99.90;;;;;;6152821;23;20071;-87
2021/05/29 12:06:38;;;;;;;3.72;2.08;;;23.00;99.90;;;;;;6152297;23;20022;-87
2021/05/29 12:09:11;;;;;;;4.30;2.28;;;23.00;99.90;;;;;;6152694;23;20013;-86
2021/05/29 12:11:41;;;;;;;3.15;2.47;;;23.00;99.90;;;;;;6152706;23;20018;-86
2021/05/29 12:14:20;;;;;;;4.47;2.60;;;22.90;99.90;;;;;;6152416;23;20016;-87
2021/05/29 12:16:55;;;;;;;3.50;2.50;;;22.80;99.90;;;;;;6153040;23;20084;-85
2021/05/29 12:19:42;;;;;;;3.75;2.42;;;22.60;99.90;;;;;;6152501;23;20057;-84
2021/05/29 12:22:12;;;;;;;7.72;2.75;;;22.70;99.90;;;;;;6152702;23;20021;-88
2021/05/29 12:24:58;;;;;;;4.05;2.40;;;22.60;99.90;;;;;;6152568;23;20017;-84
2021/05/29 12:27:30;;;;;;;3.03;2.30;;;22.50;99.90;;;;;;6152251;23;20018;-85
2021/05/29 12:30:04;;;;;;;2.60;2.40;;;22.50;99.90;;;;;;6152668;23;20017;-85
2021/05/29 12:32:35;;;;;;;3.70;2.55;;;22.40;99.90;;;;;;6151736;23;20064;-85
2021/05/29 12:35:39;;;;;;;5.25;2.08;;;22.50;99.90;;;;;;6152241;23;20536;-86
2021/05/29 12:38:14;;;;;;;2.95;2.70;;;22.60;99.90;;;;;;6153350;23;20013;-86
2021/05/29 12:40:58;;;;;;;3.28;2.50;;;22.40;99.90;;;;;;6152898;23;20423;-86
2021/05/29 12:43:26;;;;;;;2.78;2.40;;;22.40;99.90;;;;;;6152162;23;20072;-85
2021/05/29 12:45:53;;;;;;;4.60;2.58;;;22.30;99.90;;;;;;6154161;23;20017;-85
2021/05/29 12:48:21;;;;;;;2.60;2.20;;;22.20;99.90;;;;;;6152308;23;20024;-89
2021/05/29 12:53:36;;;;;;;3.53;3.00;;;22.40;99.90;;;;;;6153842;23;20394;-86
2021/05/29 12:56:15;;;;;;;4.60;2.63;;;22.40;99.90;;;;;;6152410;23;20096;-88
2021/05/29 12:58:59;;;;;;;3.25;2.72;;;22.50;99.90;;;;;;6151915;23;20049;-87
2021/05/29 13:12:16;;;;;;;3.03;2.10;;;22.50;99.90;;;;;;6153593;23;20021;-87
2021/05/29 13:14:44;;;;;;;3.08;2.30;;;22.40;99.90;;;;;;6152155;23;20014;-86
2021/05/29 13:17:28;;;;;;;6.35;2.70;;;22.20;99.90;;;;;;6151923;23;20117;-87
2021/05/29 13:20:05;;;;;;;13.10;3.10;;;22.10;99.90;;;;;;6151862;23;20072;-87
2021/05/29 13:22:40;;;;;;;9.45;3.35;;;21.90;99.90;;;;;;6152917;23;20069;-88
2021/05/29 13:25:12;;;;;;;5.43;3.30;;;21.70;99.90;;;;;;6152100;23;20048;-88
2021/05/29 13:27:48;;;;;;;8.40;2.65;;;21.50;99.90;;;;;;6152440;23;20024;-88
2021/05/29 13:30:25;;;;;;;3.60;2.08;;;21.30;99.90;;;;;;6152169;23;20748;-88
2021/05/29 13:33:07;;;;;;;3.70;2.58;;;21.10;99.90;;;;;;6153296;23;20013;-92
2021/05/29 13:35:36;;;;;;;3.45;2.47;;;20.90;99.90;;;;;;6154549;23;20468;-92
2021/05/29 13:38:04;;;;;;;4.13;2.65;;;20.70;99.90;;;;;;6153513;23;20017;-91
2021/05/29 13:40:32;;;;;;;3.08;2.53;;;20.60;99.90;;;;;;6153074;23;20017;-92
2021/05/29 13:42:59;;;;;;;4.77;2.60;;;20.50;99.90;;;;;;6153414;23;20461;-90
2021/05/29 13:45:28;;;;;;;4.32;2.70;;;20.40;99.90;;;;;;6153534;23;20029;-91
2021/05/29 13:47:55;;;;;;;4.13;2.95;;;20.30;99.90;;;;;;6154756;23;20022;-92
2021/05/29 13:50:25;;;;;;;3.05;2.40;;;20.30;99.90;;;;;;6154098;23;20465;-92
2021/05/29 13:52:56;;;;;;;2.10;1.83;;;20.20;99.90;;;;;;6153578;23;20018;-93
2021/05/29 13:55:24;;;;;;;2.30;2.10;;;20.20;99.90;;;;;;6154222;23;20018;-93
2021/05/29 13:57:54;;;;;;;2.63;1.77;;;20.10;99.90;;;;;;6153216;23;20082;-92
2021/05/29 14:00:25;;;;;;;1.98;1.85;;;20.10;99.90;;;;;;6152962;23;20029;-91
2021/05/29 14:02:54;;;;;;;1.67;1.55;;;20.10;99.90;;;;;;6153722;23;20068;-91
2021/05/29 14:05:22;;;;;;;1.95;1.38;;;20.20;99.90;;;;;;6152666;23;20505;-91
2021/05/29 14:07:49;;;;;;;1.95;1.40;;;20.20;99.90;;;;;;6153432;23;20021;-91
2021/05/29 14:10:16;;;;;;;1.23;1.10;;;20.30;99.90;;;;;;6152553;23;20073;-92
2021/05/29 14:12:44;;;;;;;1.83;1.30;;;20.40;99.90;;;;;;6153666;23;20131;-91
2021/05/29 14:15:12;;;;;;;2.35;1.50;;;20.40;99.90;;;;;;6152193;23;20017;-92
2021/05/29 14:17:39;;;;;;;3.38;1.48;;;20.50;99.90;;;;;;6152551;23;20013;-92
2021/05/29 14:20:08;;;;;;;1.95;1.55;;;20.60;99.90;;;;;;6151151;23;20584;-92
2021/05/29 14:22:35;;;;;;;1.42;1.33;;;20.60;99.90;;;;;;6152032;23;20018;-92
2021/05/29 14:25:04;;;;;;;2.30;1.48;;;20.70;99.90;;;;;;6150424;23;20108;-92
2021/05/29 14:27:34;;;;;;;1.73;1.30;;;20.70;99.90;;;;;;6150318;23;20028;-91
2021/05/29 14:30:03;;;;;;;3.90;2.10;;;20.80;99.90;;;;;;6155857;23;20017;-91
2021/05/29 14:32:38;;;;;;;1.83;1.73;;;20.90;99.90;;;;;;6154272;23;20017;-92
2021/05/29 14:35:07;;;;;;;2.53;2.00;;;21.00;99.90;;;;;;6154934;23;20013;-92
2021/05/29 14:37:34;;;;;;;3.03;2.75;;;21.10;99.90;;;;;;6154946;23;20041;-95
2021/05/29 14:40:01;;;;;;;2.70;2.50;;;21.30;99.90;;;;;;6155996;23;20017;-90
2021/05/29 14:42:31;;;;;;;3.00;2.70;;;21.30;99.90;;;;;;6155039;23;20076;-93
2021/05/29 14:44:58;;;;;;;3.35;2.75;;;21.40;99.90;;;;;;6155790;23;20022;-81
2021/05/29 14:47:25;;;;;;;3.08;2.83;;;21.40;99.90;;;;;;6154046;23;20093;-83
2021/05/29 14:49:52;;;;;;;4.05;2.60;;;21.40;99.90;;;;;;6150225;23;20032;-85
2021/05/29 14:52:22;;;;;;;3.00;2.70;;;21.40;99.90;;;;;;6148153;23;20026;-85
2021/05/29 14:54:53;;;;;;;2.90;2.50;;;21.40;99.90;;;;;;6148654;23;20017;-82
2021/05/29 14:57:27;;;;;;;2.97;2.50;;;21.40;99.90;;;;;;6151590;23;20045;-85
2021/05/29 14:59:59;;;;;;;3.47;2.88;;;21.40;99.90;;;;;;6151614;23;20021;-85
2021/05/29 15:02:26;;;;;;;4.47;3.00;;;21.30;99.90;;;;;;6150483;23;20021;-84
2021/05/29 15:04:58;;;;;;;3.22;2.92;;;21.30;99.90;;;;;;6150996;23;20022;-84
2021/05/29 15:07:25;;;;;;;5.03;3.15;;;21.30;99.90;;;;;;6152023;23;20459;-86
2021/05/29 15:09:54;;;;;;;3.65;2.80;;;21.30;99.90;;;;;;6152165;23;20045;-85
2021/05/29 15:12:24;;;;;;;3.60;2.70;;;21.30;99.90;;;;;;6150439;23;20069;-87
2021/05/29 15:14:53;;;;;;;3.67;2.75;;;21.30;99.90;;;;;;6151372;23;20021;-88
2021/05/29 15:17:20;;;;;;;3.60;2.53;;;21.20;99.90;;;;;;6152503;23;20030;-88
2021/05/29 15:19:47;;;;;;;3.47;2.40;;;21.20;99.90;;;;;;6151845;23;20021;-87
2021/05/29 15:22:18;;;;;;;2.60;2.30;;;21.20;99.90;;;;;;6152368;23;20476;-88
2021/05/29 15:24:49;;;;;;;3.55;2.70;;;21.20;99.90;;;;;;6151651;23;20022;-88
2021/05/29 15:27:16;;;;;;;4.10;3.03;;;21.10;99.90;;;;;;6152356;23;20033;-89
2021/05/29 15:29:43;;;;;;;3.75;2.97;;;21.00;99.90;;;;;;6151096;23;20013;-87
2021/05/29 15:32:12;;;;;;;4.03;3.67;;;21.00;99.90;;;;;;6150151;23;20397;-88
2021/05/29 15:34:40;;;;;;;;;;;20.90;99.90;;;;;;6151844;23;20540;-85
2021/05/29 15:37:07;;;;;;;5.85;3.72;;;20.80;99.90;;;;;;6150656;23;20403;-85
2021/05/29 15:39:34;;;;;;;4.35;3.95;;;20.80;99.90;;;;;;6152132;23;20017;-86
2021/05/29 15:42:01;;;;;;;5.07;4.57;;;20.80;99.90;;;;;;6150688;23;20076;-86
2021/05/29 15:44:30;;;;;;;4.95;4.45;;;20.70;99.90;;;;;;6149841;23;20029;-84
2021/05/29 15:46:57;;;;;;;;;;;20.70;99.90;;;;;;6150056;23;20028;-85
2021/05/29 15:49:24;;;;;;;5.65;5.20;;;20.70;99.90;;;;;;6149845;23;19924;-84
2021/05/29 15:51:51;;;;;;;5.30;4.80;;;20.60;99.90;;;;;;6148034;23;20025;-85
2021/05/29 15:54:18;;;;;;;5.70;4.50;;;20.50;99.90;;;;;;6147208;23;20076;-85
2021/05/29 15:56:45;;;;;;;6.60;4.40;;;20.30;99.90;;;;;;6148803;23;20349;-85
2021/05/29 15:59:13;;;;;;;4.75;4.13;;;20.30;99.90;;;;;;6147624;23;20018;-85
2021/05/29 16:01:40;;;;;;;3.92;3.55;;;20.20;99.90;;;;;;6150759;23;20017;-84
2021/05/29 16:04:08;;;;;;;4.53;3.90;;;20.10;99.90;;;;;;6150323;23;20026;-83
2021/05/29 16:06:35;;;;;;;4.57;4.18;;;20.10;99.90;;;;;;6150491;23;20021;-83
2021/05/29 16:09:02;;;;;;;5.43;4.47;;;20.00;99.90;;;;;;6152671;23;20361;-84
2021/05/29 16:11:29;;;;;;;6.97;5.65;;;19.90;99.90;;;;;;6152103;23;20025;-84
2021/05/29 16:13:56;;;;;;;7.45;5.43;;;19.80;99.90;;;;;;6152284;23;20544;-83
2021/05/29 16:16:24;;;;;;;5.45;5.00;;;19.70;99.90;;;;;;6152444;23;20092;-83
2021/05/29 16:18:52;;;;;;;6.57;4.57;;;19.60;99.90;;;;;;6154086;23;20088;-82
2021/05/29 16:21:20;;;;;;;4.68;4.28;;;19.50;99.90;;;;;;6149255;23;20054;-84
2021/05/29 16:23:47;;;;;;;4.40;4.00;;;19.40;99.90;;;;;;6151729;23;20014;-83
2021/05/29 16:26:14;;;;;;;8.25;4.32;;;19.30;99.90;;;;;;6151149;23;20056;-83
2021/05/29 16:28:41;;;;;;;5.63;4.20;;;19.30;99.90;;;;;;6151516;23;20017;-83
2021/05/29 16:31:11;;;;;;;5.55;4.45;;;19.10;99.90;;;;;;6148902;23;20338;-82
2021/05/29 16:33:40;;;;;;;4.55;3.75;;;19.20;99.90;;;;;;6152071;23;20026;-83
2021/05/29 16:36:12;;;;;;;5.70;3.83;;;19.10;99.90;;;;;;6150905;23;20087;-82
2021/05/29 16:38:41;;;;;;;7.05;3.88;;;19.10;99.90;;;;;;6151078;23;20022;-84
2021/05/29 16:41:09;;;;;;;;;;;19.10;99.90;;;;;;6151302;23;20014;-83
2021/05/29 16:43:40;;;;;;;4.40;4.00;;;19.10;99.90;;;;;;6149896;23;19978;-83
2021/05/29 16:46:07;;;;;;;3.95;3.60;;;19.20;99.90;;;;;;6150943;23;20025;-83
2021/05/29 16:48:35;;;;;;;5.18;3.67;;;19.20;99.90;;;;;;6150005;23;20030;-83
2021/05/29 16:51:05;;;;;;;4.18;3.35;;;19.20;99.90;;;;;;6148866;23;20374;-83
2021/05/29 16:53:42;;;;;;;4.90;3.50;;;19.20;99.90;;;;;;6149551;23;20422;-83
2021/05/29 16:56:16;;;;;;;4.82;3.47;;;19.30;99.90;;;;;;6148056;23;20022;-83
2021/05/29 16:58:46;;;;;;;3.83;3.20;;;19.30;99.90;;;;;;6150611;23;20024;-84
2021/05/29 17:01:13;;;;;;;3.92;2.72;;;19.30;99.90;;;;;;6149128;23;20041;-83
2021/05/29 17:03:41;;;;;;;3.58;3.28;;;19.30;99.90;;;;;;6149739;23;20017;-83
2021/05/29 17:06:08;;;;;;;4.20;3.50;;;19.30;99.90;;;;;;6147959;23;20044;-83
2021/05/29 17:08:37;;;;;;;5.50;3.60;;;19.40;99.90;;;;;;6149578;23;20018;-83
2021/05/29 17:11:06;;;;;;;6.43;4.30;;;19.40;99.90;;;;;;6148635;23;20013;-83
2021/05/29 17:13:37;;;;;;;7.72;3.97;;;19.40;99.90;;;;;;6150680;23;20030;-83
2021/05/29 17:16:06;;;;;;;6.45;3.83;;;19.30;99.90;;;;;;6149593;23;20017;-82
2021/05/29 17:18:34;;;;;;;6.13;3.80;;;19.30;99.90;;;;;;6149808;23;20022;-85
2021/05/29 17:21:03;;;;;;;3.83;3.53;;;19.30;99.90;;;;;;6148961;23;20024;-82
2021/05/29 17:23:31;;;;;;;5.80;3.90;;;19.30;99.90;;;;;;6148780;23;20535;-83
2021/05/29 17:25:58;;;;;;;5.20;3.65;;;19.30;99.90;;;;;;6150415;23;20029;-83
2021/05/29 17:28:25;;;;;;;7.53;4.53;;;19.20;99.90;;;;;;6149235;23;20448;-84
2021/05/29 17:30:52;;;;;;;5.25;4.50;;;19.20;99.90;;;;;;6147828;23;20017;-84
2021/05/29 17:33:19;;;;;;;4.40;4.03;;;19.20;99.90;;;;;;6147891;23;20075;-83
2021/05/29 17:35:46;;;;;;;8.35;5.00;;;19.20;99.90;;;;;;6150827;23;20021;-84
2021/05/29 17:38:13;;;;;;;6.53;4.75;;;19.10;99.90;;;;;;6148324;23;20037;-83
2021/05/29 17:40:41;;;;;;;7.82;5.20;;;19.10;99.90;;;;;;6148903;23;20021;-82
2021/05/29 17:43:08;;;;;;;6.00;5.50;;;19.00;99.90;;;;;;6149915;23;20323;-82
2021/05/29 17:45:35;;;;;;;6.15;5.53;;;18.90;99.90;;;;;;6148906;23;20025;-82
2021/05/29 17:48:03;;;;;;;6.18;5.10;;;18.70;99.90;;;;;;6151353;23;20338;-83
2021/05/29 17:50:31;;;;;;;7.13;5.15;;;18.60;99.90;;;;;;6144232;23;20815;-83
2021/05/29 17:52:58;;;;;;;7.10;5.20;;;18.50;99.90;;;;;;6144303;23;20413;-83
2021/05/29 17:55:25;;;;;;;9.40;5.43;;;18.30;99.90;;;;;;6145539;23;20968;-84
2021/05/29 18:00:29;;;;;;;5.90;4.95;;;18.10;99.90;;;;;;6143701;23;20018;-84
2021/05/29 18:03:02;;;;;;;6.40;5.70;;;18.10;99.90;;;;;;6143457;23;20021;-83
2021/05/29 18:05:30;;;;;;;6.05;5.25;;;18.00;99.90;;;;;;6142063;23;20028;-83
2021/05/29 18:07:57;;;;;;;6.50;5.50;;;18.00;99.90;;;;;;6146333;23;20480;-84
2021/05/29 18:10:25;;;;;;;5.38;4.88;;;17.90;99.90;;;;;;6145355;23;20026;-82
2021/05/29 18:12:54;;;;;;;6.57;5.10;;;17.90;99.90;;;;;;6144820;23;20025;-82
2021/05/29 18:15:21;;;;;;;6.13;5.30;;;18.00;99.90;;;;;;6142013;23;20032;-83
2021/05/29 18:17:48;;;;;;;6.78;5.47;;;17.90;99.90;;;;;;6146615;23;20064;-83
2021/05/29 18:20:15;;;;;;;5.75;5.25;;;17.90;99.90;;;;;;6142436;23;20029;-84
2021/05/29 18:22:43;;;;;;;8.98;5.53;;;17.90;99.90;;;;;;6142766;23;20027;-83
2021/05/29 18:25:12;;;;;;;6.57;5.88;;;17.90;99.90;;;;;;6141781;23;20021;-82
2021/05/29 18:27:40;;;;;;;6.97;5.90;;;18.00;99.90;;;;;;6143612;23;20021;-83
2021/05/29 18:30:08;;;;;;;7.47;6.03;;;17.90;99.90;;;;;;6141028;23;20022;-82
2021/05/29 18:32:36;;;;;;;6.80;6.10;;;17.90;99.90;;;;;;6141152;23;20044;-83
2021/05/29 18:35:05;;;;;;;8.10;5.38;;;17.90;99.90;;;;;;6141185;23;20024;-84
2021/05/29 18:40:05;;;;;;;6.82;5.07;;;18.00;99.90;;;;;;6151793;23;20448;-82
2021/05/29 18:42:32;;;;;;;8.10;5.45;;;18.10;99.90;;;;;;6149767;23;20022;-82
2021/05/29 18:44:59;;;;;;;7.13;5.10;;;18.10;99.90;;;;;;6117467;23;20018;-83
2021/05/29 18:47:26;;;;;;;8.65;5.20;;;18.10;99.90;;;;;;6148738;23;20028;-82
2021/05/29 18:49:53;;;;;;;7.43;4.88;;;18.10;99.90;;;;;;6150494;23;20018;-84
2021/05/29 18:52:20;;;;;;;5.22;4.72;;;18.10;99.90;;;;;;6151315;23;20033;-82
2021/05/29 18:54:47;;;;;;;6.60;4.40;;;18.00;99.90;;;;;;6149966;23;20092;-82
2021/05/29 18:57:15;;;;;;;6.15;4.50;;;18.10;99.90;;;;;;6134937;23;20080;-84
2021/05/29 19:02:33;;;;;;;8.43;4.80;;;18.00;99.90;;;;;;6136432;23;20029;-84
2021/05/29 19:05:07;;;;;;;7.13;4.80;;;18.10;99.90;;;;;;6146186;23;20022;-85
2021/05/29 19:10:05;;;;;;;4.50;4.10;;;18.00;99.90;;;;;;6146764;23;20017;-84
2021/05/29 19:12:34;;;;;;;5.63;4.28;;;18.10;99.90;;;;;;6144604;23;20022;-83
2021/05/29 19:17:33;;;;;;;6.82;4.05;;;18.10;99.90;;;;;;6146293;23;20017;-84
2021/05/29 19:20:00;;;;;;;7.40;4.13;;;18.00;99.90;;;;;;6146787;23;20096;-84
2021/05/29 19:22:52;;;;;;;4.97;4.57;;;18.00;99.90;;;;;;6144605;23;20670;-84
2021/05/29 19:27:58;;;;;;;5.07;4.50;;;18.00;99.90;;;;;;6146502;23;20036;-84
2021/05/29 19:30:32;;;;;;;6.88;5.60;;;17.90;99.90;;;;;;6143596;23;20101;-84
2021/05/29 19:41:16;;;;;;;6.28;5.05;;;17.80;99.90;;;;;;6054108;23;20019;-84
2021/05/29 19:46:43;;;;;;;6.53;5.15;;;17.80;99.90;;;;;;6054967;23;20502;-83
2021/05/29 20:11:36;;;;;;;9.20;5.57;;;17.50;99.90;;;;;;6054386;23;20022;-84
2021/05/29 20:17:10;;;;;;;8.77;5.97;;;17.40;99.90;;;;;;6113330;23;20101;-81
2021/05/29 20:25:18;;;;;;;8.68;6.18;;;17.30;99.90;;;;;;6141704;23;20063;-84
2021/05/29 20:27:49;;;;;;;9.85;5.85;;;17.20;99.90;;;;;;6118327;23;20021;-83
2021/05/29 20:30:17;;;;;;;7.57;6.10;;;17.20;99.90;;;;;;6117197;23;20401;-82
2021/05/29 20:32:47;;;;;;;7.75;5.65;;;17.20;99.90;;;;;;6118419;23;20013;-83
2021/05/29 20:35:14;;;;;;;8.93;5.50;;;17.20;99.90;;;;;;6116557;23;20057;-83
2021/05/29 20:37:43;;;;;;;5.78;5.15;;;17.10;99.90;;;;;;6116399;23;20018;-82
2021/05/29 20:40:16;;;;;;;6.15;5.53;;;17.10;99.90;;;;;;6117287;23;20800;-82
2021/05/29 20:42:45;;;;;;;7.40;5.53;;;17.10;99.90;;;;;;6118580;23;20047;-82
2021/05/29 20:45:18;;;;;;;5.88;5.28;;;17.00;99.90;;;;;;6140870;23;20027;-81
2021/05/29 20:47:45;;;;;;;6.30;5.30;;;17.00;99.90;;;;;;6124973;23;20021;-81
2021/05/29 20:50:14;;;;;;;7.82;5.93;;;17.00;99.90;;;;;;6146570;23;20097;-83
2021/05/29 20:52:41;;;;;;;7.78;5.82;;;17.00;99.90;;;;;;6148193;23;20025;-83
2021/05/29 20:55:08;;;;;;;7.53;5.93;;;17.00;99.90;;;;;;6147218;23;20020;-84
2021/05/29 20:57:35;;;;;;;7.57;5.53;;;16.90;99.90;;;;;;6146830;23;20425;-84
2021/05/29 21:00:04;;;;;;;6.80;5.00;;;16.90;99.90;;;;;;6153505;23;20404;-84
2021/05/29 21:02:31;;;;;;;7.00;4.93;;;16.90;99.90;;;;;;6146117;23;20022;-84
2021/05/29 21:04:58;;;;;;;5.82;5.30;;;16.90;99.90;;;;;;6142949;23;20025;-83
2021/05/29 21:07:25;;;;;;;7.05;5.65;;;16.90;99.90;;;;;;6143521;23;20132;-83
2021/05/29 21:09:52;;;;;;;7.55;6.28;;;16.80;99.90;;;;;;6143574;23;20021;-83
2021/05/29 21:12:19;;;;;;;6.13;5.47;;;16.80;99.90;;;;;;6143368;23;20023;-83
2021/05/29 21:14:58;;;;;;;7.45;6.60;;;16.80;99.90;;;;;;6145510;23;20076;-84
2021/05/29 21:22:44;;;;;;;9.05;6.03;;;16.70;99.90;;;;;;6144855;23;20021;-84
2021/05/29 21:25:13;;;;;;;8.90;6.18;;;16.70;99.90;;;;;;6143012;23;20397;-85
2021/05/29 21:27:40;;;;;;;;;;;16.60;99.90;;;;;;6145267;23;20068;-84
2021/05/29 21:30:10;;;;;;;5.82;5.28;;;16.60;99.90;;;;;;6141839;23;19950;-84
2021/05/29 21:32:37;;;;;;;10.18;6.22;;;16.50;99.90;;;;;;6142381;23;20026;-85
2021/05/29 21:35:07;;;;;;;8.63;6.25;;;16.50;99.90;;;;;;6142044;23;20025;-84
2021/05/29 21:37:35;;;;;;;8.25;6.25;;;16.40;99.90;;;;;;6145072;23;20022;-84
2021/05/29 21:40:04;;;;;;;8.32;6.10;;;16.40;99.90;;;;;;6148038;23;20560;-85
2021/05/29 21:42:31;;;;;;;7.40;6.10;;;16.30;99.90;;;;;;6129165;23;20100;-86
2021/05/29 21:50:42;;;;;;;9.10;6.97;;;16.20;99.90;;;;;;6057732;23;20532;-84
2021/05/29 21:53:11;;;;;;;9.18;6.60;;;16.10;99.90;;;;;;6058417;23;20448;-87
2021/05/29 21:55:38;;;;;;;7.93;7.13;;;16.20;99.90;;;;;;6063450;23;20019;-86
2021/05/29 21:58:07;;;;;;;8.90;7.53;;;16.10;99.90;;;;;;6063604;23;20023;-87
2021/05/29 22:03:06;;;;;;;8.63;7.78;;;16.00;99.90;;;;;;6061130;23;20078;-86
2021/05/29 22:05:33;;;;;;;9.68;7.30;;;16.00;99.90;;;;;;6037662;23;20063;-86
2021/05/29 22:08:00;;;;;;;9.63;7.75;;;15.90;99.90;;;;;;6062128;23;20071;-85